• Join FlightAware (Why Join?)
  • Login
  • US Flag 
12:08AM EDT


 

Airport Tracker/Info


-or-


 

Live Flight TrackerFlight Track Log ✈ AWI3704 ✈ 18-May-2013 ✈ KPHL - KALB

Flight Track Log - Related Links

Times and Time Zones

All times are in EDT time to prevent confusion due to time zone crossing. See the AWI3704 flight status page for this flight to view local times or setup timezone preferences in your user account.

Time Position Orientation Groundspeed Altitude Reporting Facility
EDT Latitude Longitude Course Direction KTS MPH feet Rate Location/Type
09:52AM 39.8833 -75.2167 37° Northeast 150 173 800  Level Philadelphia TRACON
09:52AM 39.8667 -75.1833 123° Southeast 182 209 1,700 2,160 Climbing Philadelphia TRACON
09:53AM 39.8667 -75.1167 90° East 237 273 4,100 2,100 Climbing Philadelphia TRACON
09:54AM 39.8167 -74.9055 90° East  Level FlightAware Approximate
09:55AM 39.8020 -74.7930 105° East  Level FlightAware Approximate
09:55AM 39.8350 -74.9556 104° East 277 319 7,500  Level New York Center
09:56AM 39.7949 -74.6885 37° Northeast  Level FlightAware Approximate
09:56AM 39.8175 -74.8628 104° East 294 338 9,600  Level New York Center
09:57AM 39.8650 -74.6184 37° Northeast  Level FlightAware Approximate
09:57AM 39.8025 -74.7511 100° East 300 345 10,800  Level New York Center
09:58AM 39.8558 -74.6539 54° Northeast 298 343 12,700 1,860 Climbing New York Center
09:59AM 39.9356 -74.5744 37° Northeast 309 356 14,600 1,740 Climbing New York Center
10:00AM 40.0258 -74.4872 36° Northeast 343 395 16,200 1,440 Climbing New York Center
10:01AM 40.0989 -74.4181 36° Northeast 361 415 17,500 1,020 Climbing New York Center
10:02AM 40.1806 -74.3381 37° Northeast 367 422 18,300 840 Climbing New York Center
10:03AM 40.2644 -74.2472 40° Northeast 379 436 19,200 900 Climbing New York Center
10:04AM 40.3525 -74.1644 36° Northeast 379 436 20,200 900 Climbing New York Center
10:05AM 40.4383 -74.0758 38° Northeast 379 436 21,100 1,080 Climbing New York Center
10:07AM 40.6292 -73.9606 25° Northeast 370 426 23,300 1,020 Climbing Boston Center
10:08AM 40.7300 -73.9053 23° Northeast 370 426 24,000 300 Climbing Boston Center
10:09AM 40.8183 -73.8361 31° Northeast 370 426 24,000 -60 Level Boston Center
10:10AM 40.9114 -73.7228 43° Northeast 379 436 23,900 -540 Descending Boston Center
10:11AM 40.9875 -73.6197 46° Northeast 379 436 23,000 -480 Descending Boston Center
10:12AM 41.0839 -73.5775 18° North 360 414 23,000 -420 Level Boston Center
10:13AM 41.1781 -73.5322 20° North 353 406 22,200 -900 Descending Boston Center
10:14AM 41.2556 -73.4975 19° North 353 406 21,300 -1,080 Descending Boston Center
10:15AM 41.3681 -73.5022 358° North 334 384 20,100 -1,140 Descending Boston Center
10:16AM 41.4597 -73.5036 359° North 329 379 19,100 -1,020 Descending Boston Center
10:17AM 41.5408 -73.5050 359° North 318 366 18,100 -960 Descending Boston Center
10:18AM 41.6408 -73.5122 357° North 328 377 17,200 -1,020 Descending Boston Center
10:19AM 41.7200 -73.5136 359° North 328 377 16,100 -1,200 Descending Boston Center
10:20AM 41.8181 -73.5181 358° North 317 365 14,800 -1,200 Descending Boston Center
10:21AM 41.8950 -73.5194 359° North 312 359 13,700 -1,260 Descending Boston Center
10:21AM 41.9556 -73.5233 357° North 314 361 12,900 -1,380 Descending Boston Center
10:22AM 41.9908 -73.5211 North 315 362 12,400 -1,200 Descending Boston Center
10:23AM 42.0764 -73.5281 357° North 310 357 11,200 -660 Descending Boston Center
10:24AM 42.1597 -73.5183 North 306 352 11,100 -300 Descending Boston Center
10:25AM 42.2325 -73.5533 340° North 291 335 10,700 -1,320 Descending Boston Center
10:26AM 42.2964 -73.6050 329° Northwest 270 311 8,500 -2,160 Descending Boston Center
10:27AM 42.3628 -73.6483 334° Northwest 264 304 6,400 -1,740 Descending Boston Center
10:28AM 42.4369 -73.7089 329° Northwest 276 318 4,800 -1,200 Descending Boston Center
10:29AM 42.4928 -73.7494 332° Northwest 269 310 4,000 -960 Descending Boston Center
10:30AM 42.5569 -73.7931 333° Northwest 264 304 3,100 -900 Descending Boston Center